createdAt,value
2022-12-18T00:02:16.927Z,10.63
2022-12-18T00:04:47.490Z,11.82
2022-12-18T00:07:16.196Z,9.93
2022-12-18T00:09:44.622Z,11.40
2022-12-18T00:14:47.562Z,13.40
2022-12-18T00:46:30.773Z,8.98
2022-12-18T00:48:59.266Z,9.27
2022-12-18T00:51:28.609Z,10.52
2022-12-18T00:53:57.163Z,8.98
2022-12-18T00:56:26.067Z,9.65
2022-12-18T00:58:55.023Z,10.80
2022-12-18T01:01:23.590Z,13.85
2022-12-18T01:03:53.458Z,11.23
2022-12-18T01:06:22.159Z,7.43
2022-12-18T01:08:50.665Z,10.45
2022-12-18T01:11:21.523Z,10.82
2022-12-18T01:13:50.755Z,10.13
2022-12-18T01:48:01.455Z,8.85
2022-12-18T01:50:35.920Z,9.05
2022-12-18T01:53:09.749Z,10.25
2022-12-18T01:55:45.078Z,9.05
2022-12-18T01:58:13.604Z,10.38
2022-12-18T02:00:42.252Z,8.90
2022-12-18T02:03:12.291Z,7.72
2022-12-18T02:05:49.103Z,8.90
2022-12-18T02:08:27.353Z,8.75
2022-12-18T02:11:02.810Z,8.48
2022-12-18T02:13:43.002Z,8.65
2022-12-18T02:16:23.651Z,6.68
2022-12-18T02:18:59.964Z,8.50
2022-12-18T02:21:41.452Z,8.65
2022-12-18T02:24:27.346Z,9.95
2022-12-18T02:27:00.701Z,7.70
2022-12-18T02:29:38.287Z,8.60
2022-12-18T02:32:14.111Z,10.68
2022-12-18T02:34:45.386Z,7.60
2022-12-18T02:37:20.964Z,8.05
2022-12-18T02:39:53.501Z,8.45
2022-12-18T02:42:25.014Z,8.45
2022-12-18T02:44:54.393Z,8.32
2022-12-18T02:47:29.860Z,9.18
2022-12-18T02:50:09.578Z,9.63
2022-12-18T02:52:48.220Z,10.27
2022-12-18T02:55:30.363Z,9.07
2022-12-18T02:58:12.200Z,8.43
2022-12-18T03:47:40.497Z,7.40
2022-12-18T03:50:17.030Z,8.55
2022-12-18T03:52:52.426Z,9.90
2022-12-18T03:55:24.757Z,7.70
2022-12-18T03:58:01.000Z,8.32
2022-12-18T04:45:12.294Z,7.83
2022-12-18T04:47:42.017Z,8.65
2022-12-18T04:50:10.715Z,8.85
2022-12-18T04:52:39.212Z,7.22
2022-12-18T04:55:11.167Z,7.75
2022-12-18T04:57:39.572Z,8.07
2022-12-18T05:31:48.923Z,7.07
2022-12-18T05:34:17.585Z,8.00
2022-12-18T05:36:46.014Z,9.10
2022-12-18T05:39:14.491Z,6.90
2022-12-18T05:41:43.053Z,8.70
2022-12-18T05:44:11.855Z,8.60
2022-12-18T05:46:43.276Z,7.32
2022-12-18T05:49:13.162Z,8.45
2022-12-18T05:51:41.632Z,8.05
2022-12-18T05:54:10.985Z,7.85
2022-12-18T05:56:42.944Z,5.88
2022-12-18T05:59:14.028Z,7.15
2022-12-18T06:01:42.546Z,8.65
2022-12-18T06:04:12.368Z,8.32
2022-12-18T06:06:40.813Z,9.25
2022-12-18T06:09:10.542Z,8.25
2022-12-18T06:11:40.707Z,8.85
2022-12-18T06:14:09.355Z,7.72
2022-12-18T06:16:37.734Z,7.47
2022-12-18T06:19:08.006Z,7.43
2022-12-18T06:21:38.047Z,8.23
2022-12-18T06:24:07.660Z,8.10
2022-12-18T06:26:36.198Z,6.93
2022-12-18T06:29:04.550Z,6.97
2022-12-18T06:31:33.030Z,9.57
2022-12-18T06:34:04.695Z,7.72
2022-12-18T06:36:34.063Z,6.45
2022-12-18T06:39:04.107Z,6.93
2022-12-18T06:41:32.842Z,6.70
2022-12-18T06:44:01.212Z,8.13
2022-12-18T06:46:29.815Z,6.93
2022-12-18T06:48:58.151Z,7.22
2022-12-18T06:51:27.805Z,6.28
2022-12-18T06:53:56.106Z,6.75
2022-12-18T06:56:25.921Z,7.65
2022-12-18T06:58:54.429Z,7.53
2022-12-18T07:01:24.523Z,11.23
2022-12-18T07:03:55.758Z,6.40
2022-12-18T07:06:27.126Z,6.07
2022-12-18T07:08:56.769Z,6.07
2022-12-18T07:11:26.736Z,9.55
2022-12-18T07:13:55.941Z,6.88
2022-12-18T07:16:29.340Z,7.25
2022-12-18T07:18:58.364Z,8.30
2022-12-18T07:21:27.449Z,8.65
2022-12-18T07:23:55.791Z,5.88
2022-12-18T07:26:25.846Z,6.47
2022-12-18T07:28:58.396Z,7.70
2022-12-18T07:31:27.707Z,7.88
2022-12-18T07:33:56.071Z,7.05
2022-12-18T07:36:24.631Z,6.25
2022-12-18T07:38:54.172Z,8.43
2022-12-18T07:41:22.990Z,7.95
2022-12-18T07:43:53.020Z,8.38
2022-12-18T07:46:22.064Z,8.20
2022-12-18T07:48:50.649Z,6.60
2022-12-18T07:51:20.383Z,5.18
2022-12-18T07:53:52.013Z,5.32
2022-12-18T07:56:27.801Z,6.80
2022-12-18T07:58:59.165Z,9.68
2022-12-18T08:45:29.518Z,12.18
2022-12-18T08:48:00.585Z,8.63
2022-12-18T08:50:28.886Z,8.65
2022-12-18T08:52:57.184Z,8.55
2022-12-18T08:55:25.940Z,8.82
2022-12-18T08:57:54.321Z,9.40
2022-12-18T09:09:54.262Z,6.30
2022-12-18T09:12:22.739Z,7.53
2022-12-18T09:14:51.196Z,7.15
2022-12-18T09:17:19.572Z,7.10
2022-12-18T09:19:47.908Z,7.22
2022-12-18T09:22:16.238Z,6.28
2022-12-18T09:24:44.704Z,6.70
2022-12-18T09:27:14.496Z,7.10
2022-12-18T09:29:42.880Z,7.85
2022-12-18T09:32:11.398Z,6.15
2022-12-18T09:34:40.121Z,7.80
2022-12-18T09:37:08.946Z,7.85
2022-12-18T09:39:37.818Z,9.98
2022-12-18T09:42:07.551Z,8.63
2022-12-18T09:44:45.724Z,6.05
2022-12-18T09:47:19.860Z,6.72
2022-12-18T09:49:51.668Z,7.47
2022-12-18T09:52:27.230Z,7.35
2022-12-18T09:55:01.998Z,5.40
2022-12-18T09:57:35.302Z,8.38
2022-12-18T10:08:56.812Z,7.88
2022-12-18T10:11:41.008Z,5.40
2022-12-18T10:14:19.439Z,6.22
2022-12-18T10:17:00.201Z,7.30
2022-12-18T10:19:49.990Z,7.63
2022-12-18T10:22:37.314Z,7.35
2022-12-18T10:25:22.890Z,5.68
2022-12-18T10:27:59.814Z,6.47
2022-12-18T10:30:28.688Z,5.90
2022-12-18T10:33:04.948Z,5.47
2022-12-18T10:35:34.528Z,6.07
2022-12-18T10:38:09.745Z,5.13
2022-12-18T10:40:53.429Z,5.63
2022-12-18T10:43:28.729Z,7.28
2022-12-18T10:46:15.510Z,6.70
2022-12-18T10:48:54.899Z,8.30
2022-12-18T10:51:26.997Z,7.30
2022-12-18T10:53:59.688Z,7.07
2022-12-18T10:56:32.368Z,5.85
2022-12-18T10:59:05.088Z,7.07
2022-12-18T11:01:50.907Z,7.13
2022-12-18T11:04:23.740Z,7.13
2022-12-18T11:06:59.940Z,7.13
2022-12-18T11:09:30.445Z,5.93
2022-12-18T11:12:03.706Z,7.13
2022-12-18T11:14:36.207Z,7.40
2022-12-18T11:19:57.059Z,5.65
2022-12-18T11:22:28.828Z,8.15
2022-12-18T11:27:57.682Z,6.38
2022-12-18T11:30:29.394Z,5.75
2022-12-18T11:33:07.773Z,4.95
2022-12-18T11:35:46.459Z,5.40
2022-12-18T11:38:26.766Z,8.70
2022-12-18T11:41:01.157Z,6.80
2022-12-18T11:43:36.792Z,4.47
2022-12-18T11:46:19.121Z,6.00
2022-12-18T11:48:54.524Z,6.03
2022-12-18T11:51:35.616Z,5.47
2022-12-18T11:54:12.129Z,9.20
2022-12-18T11:56:48.303Z,6.68
2022-12-18T11:59:28.615Z,6.22
2022-12-18T12:02:07.562Z,5.78
2022-12-18T12:04:55.751Z,8.02
2022-12-18T12:07:40.830Z,7.22
2022-12-18T12:10:27.660Z,11.20
2022-12-18T12:13:13.623Z,6.97
2022-12-18T12:15:52.212Z,7.90
2022-12-18T12:18:32.940Z,8.73
2022-12-18T12:21:10.564Z,5.70
2022-12-18T12:23:49.983Z,6.05
2022-12-18T12:26:28.039Z,5.57
2022-12-18T12:29:20.942Z,5.25
2022-12-18T12:32:14.593Z,6.93
2022-12-18T12:35:00.294Z,6.53
2022-12-18T12:37:43.865Z,7.10
2022-12-18T12:40:49.281Z,7.40
2022-12-18T12:43:22.188Z,5.38
2022-12-18T12:45:56.051Z,7.53
2022-12-18T12:48:37.397Z,8.75
2022-12-18T12:51:16.005Z,5.82
2022-12-18T12:53:45.256Z,5.45
2022-12-18T12:56:18.003Z,9.30
2022-12-18T12:59:00.602Z,7.13
2022-12-18T13:01:40.321Z,6.50
2022-12-18T13:04:24.091Z,6.90
2022-12-18T13:07:02.191Z,6.35
2022-12-18T13:09:34.896Z,6.55
2022-12-18T13:12:28.247Z,7.65
2022-12-18T13:15:15.771Z,7.57
2022-12-18T13:17:45.396Z,6.70
2022-12-18T13:20:17.533Z,6.35
2022-12-18T13:22:49.182Z,8.18
2022-12-18T13:25:38.953Z,10.25
2022-12-18T13:28:14.645Z,6.05
2022-12-18T13:30:59.079Z,5.80
2022-12-18T13:36:37.350Z,8.02
2022-12-18T13:39:37.142Z,4.82
2022-12-18T13:42:59.293Z,6.47
2022-12-18T13:45:47.453Z,6.85
2022-12-18T13:48:27.855Z,5.78
2022-12-18T13:51:07.661Z,7.40
2022-12-18T13:53:45.496Z,6.05
2022-12-18T13:56:19.373Z,6.40
2022-12-18T13:59:18.317Z,5.07
2022-12-18T14:01:52.837Z,6.50
2022-12-18T14:04:29.300Z,7.38
2022-12-18T14:07:04.861Z,5.65
2022-12-18T14:09:39.552Z,5.40
2022-12-18T14:12:34.198Z,5.18
2022-12-18T14:15:03.168Z,6.00
2022-12-18T14:17:32.871Z,5.00
2022-12-18T14:20:02.884Z,5.47
2022-12-18T14:22:32.712Z,4.97
2022-12-18T14:25:19.424Z,7.10
2022-12-18T14:27:50.192Z,7.35
2022-12-18T14:30:34.098Z,5.28
2022-12-18T14:33:06.707Z,6.93
2022-12-18T14:35:36.772Z,9.98
2022-12-18T14:38:25.942Z,8.35
2022-12-18T14:41:04.448Z,7.03
2022-12-18T14:43:36.453Z,6.35
2022-12-18T14:46:06.948Z,7.85
2022-12-18T14:48:44.835Z,9.20
2022-12-18T14:51:20.849Z,6.88
2022-12-18T14:53:54.828Z,7.75
2022-12-18T14:56:27.456Z,5.93
2022-12-18T14:58:58.603Z,8.23
2022-12-18T15:01:31.778Z,6.07
2022-12-18T15:04:02.553Z,6.68
2022-12-18T15:06:35.356Z,7.10
2022-12-18T15:09:07.777Z,6.13
2022-12-18T15:11:49.383Z,6.05
2022-12-18T15:14:26.794Z,5.57
2022-12-18T15:16:56.477Z,7.13
2022-12-18T15:19:34.286Z,5.72
2022-12-18T15:22:06.357Z,5.90
2022-12-18T15:24:35.526Z,6.75
2022-12-18T15:27:06.007Z,6.78
2022-12-18T15:29:34.366Z,5.97
2022-12-18T15:32:07.733Z,7.20
2022-12-18T15:34:36.185Z,8.23
2022-12-18T15:37:04.531Z,7.50
2022-12-18T15:39:32.828Z,8.13
2022-12-18T15:42:21.779Z,6.65
2022-12-18T15:44:50.205Z,6.10
2022-12-18T15:47:18.601Z,8.35
2022-12-18T15:49:46.976Z,8.98
2022-12-18T15:52:26.874Z,8.82
2022-12-18T15:55:12.760Z,7.93
2022-12-18T15:57:43.072Z,7.13
2022-12-18T16:00:15.603Z,8.90
2022-12-18T16:02:45.349Z,11.00
2022-12-18T16:05:17.972Z,12.48
2022-12-18T16:07:47.417Z,9.73
2022-12-18T16:10:17.020Z,12.20
2022-12-18T16:12:47.015Z,14.27
2022-12-18T16:15:21.075Z,16.17
2022-12-18T16:17:52.814Z,14.05
2022-12-18T16:20:23.862Z,15.23
2022-12-18T16:22:54.052Z,14.52
2022-12-18T16:25:25.884Z,16.38
2022-12-18T16:27:57.247Z,13.75
2022-12-18T16:30:28.864Z,12.40
2022-12-18T16:33:01.412Z,15.45
2022-12-18T16:35:30.129Z,14.23
2022-12-18T16:37:59.652Z,16.00
2022-12-18T16:40:28.598Z,14.40
2022-12-18T16:42:58.730Z,13.73
2022-12-18T16:45:27.334Z,16.30
2022-12-18T16:47:56.066Z,11.05
2022-12-18T16:50:24.444Z,12.35
2022-12-18T16:52:52.902Z,12.38
2022-12-18T16:55:22.640Z,12.70
2022-12-18T16:57:52.261Z,12.23
2022-12-18T17:00:23.242Z,12.38
2022-12-18T17:02:52.091Z,16.00
2022-12-18T17:05:20.928Z,14.80
2022-12-18T17:07:50.264Z,11.60
2022-12-18T17:10:19.010Z,13.77
2022-12-18T17:12:48.202Z,13.68
2022-12-18T17:15:17.377Z,14.77
2022-12-18T17:17:49.129Z,11.70
2022-12-18T17:20:18.319Z,12.77
2022-12-18T17:22:48.548Z,12.20
2022-12-18T17:25:17.367Z,12.27
2022-12-18T17:27:45.811Z,12.30
2022-12-18T17:30:16.206Z,12.15
2022-12-18T17:32:44.921Z,10.65
2022-12-18T17:35:17.867Z,13.25
2022-12-18T17:37:46.919Z,13.95
2022-12-18T17:40:16.055Z,9.98
2022-12-18T17:42:45.330Z,11.57
2022-12-18T17:45:14.222Z,12.00
2022-12-18T17:47:42.946Z,13.43
2022-12-18T17:50:11.871Z,12.40
2022-12-18T17:52:42.184Z,13.80
2022-12-18T17:55:11.893Z,11.80
2022-12-18T17:57:40.410Z,11.30
2022-12-18T18:00:11.366Z,13.00
2022-12-18T18:02:40.627Z,14.32
2022-12-18T18:05:10.126Z,14.88
2022-12-18T18:07:41.817Z,15.70
2022-12-18T18:10:11.181Z,14.15
2022-12-18T18:12:57.008Z,10.95
2022-12-18T18:15:25.458Z,13.20
2022-12-18T18:17:54.305Z,13.27
2022-12-18T18:20:23.041Z,14.32
2022-12-18T18:22:53.278Z,14.35
2022-12-18T18:25:22.780Z,12.52
2022-12-18T18:27:51.590Z,13.10
2022-12-18T18:30:20.269Z,12.60
2022-12-18T18:32:48.934Z,13.98
2022-12-18T18:35:45.082Z,13.18
2022-12-18T18:38:10.266Z,12.95
2022-12-18T18:40:40.420Z,15.75
2022-12-18T18:43:12.637Z,16.13
2022-12-18T18:45:43.388Z,11.85
2022-12-18T18:48:17.818Z,13.88
2022-12-18T18:50:56.900Z,13.70
2022-12-18T18:53:28.758Z,11.18
2022-12-18T18:56:34.889Z,12.30
2022-12-18T18:58:52.041Z,10.43
2022-12-18T19:01:23.531Z,11.70
2022-12-18T19:03:55.079Z,16.85
2022-12-18T19:06:29.823Z,296.08
2022-12-18T19:09:03.508Z,647.00
2022-12-18T19:11:51.165Z,530.20
2022-12-18T19:14:20.398Z,491.85
2022-12-18T19:16:51.946Z,494.45
2022-12-18T19:19:21.161Z,486.65
2022-12-18T19:21:50.352Z,451.45
2022-12-18T19:24:22.390Z,458.20
2022-12-18T19:26:52.132Z,412.17
2022-12-18T19:29:22.856Z,413.90
2022-12-18T19:31:54.759Z,399.42
2022-12-18T19:34:24.346Z,388.20
2022-12-18T19:36:59.285Z,379.40
2022-12-18T19:39:32.095Z,361.63
2022-12-18T19:42:01.280Z,335.75
2022-12-18T19:44:30.136Z,324.55
2022-12-18T19:46:59.002Z,270.85
2022-12-18T19:49:28.009Z,168.07
2022-12-18T19:51:56.425Z,158.70
2022-12-18T19:54:24.934Z,155.18
2022-12-18T19:56:56.035Z,133.50
2022-12-18T19:59:24.456Z,142.82
2022-12-18T20:01:54.232Z,129.27
2022-12-18T20:04:24.623Z,135.60
2022-12-18T20:06:54.808Z,124.72
2022-12-18T20:09:29.464Z,123.55
2022-12-18T20:12:00.867Z,125.78
2022-12-18T20:14:30.364Z,119.43
2022-12-18T20:16:59.726Z,120.88
2022-12-18T20:19:29.746Z,87.05
2022-12-18T20:21:58.647Z,72.30
2022-12-18T20:24:27.891Z,73.13
2022-12-18T20:26:56.658Z,67.45
2022-12-18T20:29:26.442Z,60.50
2022-12-18T20:31:54.909Z,62.45
2022-12-18T20:34:24.026Z,64.00
2022-12-18T20:36:52.542Z,62.40
2022-12-18T20:39:21.103Z,62.03
2022-12-18T20:41:51.051Z,62.80
2022-12-18T20:44:22.662Z,59.00
2022-12-18T20:46:55.229Z,55.67
2022-12-18T20:49:24.443Z,70.03
2022-12-18T20:51:54.002Z,57.22
2022-12-18T20:54:23.018Z,52.08
2022-12-18T20:56:51.843Z,54.47
2022-12-18T20:59:20.708Z,52.15
2022-12-18T21:01:49.900Z,48.50
2022-12-18T21:04:20.395Z,43.92
2022-12-18T21:06:53.379Z,51.50
2022-12-18T21:09:29.984Z,48.45
2022-12-18T21:12:30.170Z,49.00
2022-12-18T21:15:03.641Z,45.53
2022-12-18T21:17:34.552Z,45.17
2022-12-18T21:20:17.354Z,43.05
2022-12-18T21:22:49.240Z,41.95
2022-12-18T21:25:18.842Z,41.58
2022-12-18T21:27:48.074Z,44.63
2022-12-18T21:30:18.087Z,41.97
2022-12-18T21:32:47.946Z,42.08
2022-12-18T21:35:18.391Z,38.95
2022-12-18T21:37:50.600Z,40.88
2022-12-18T21:40:19.470Z,38.95
2022-12-18T21:43:05.494Z,36.30
2022-12-18T21:45:34.023Z,40.85
2022-12-18T21:48:03.029Z,36.95
2022-12-18T21:50:36.231Z,37.13
2022-12-18T21:53:04.809Z,34.80
2022-12-18T21:55:33.386Z,34.20
2022-12-18T21:58:02.075Z,35.60
2022-12-18T22:00:30.721Z,33.78
2022-12-18T22:03:16.955Z,35.20
2022-12-18T22:05:53.983Z,35.17
2022-12-18T22:08:41.588Z,32.17
2022-12-18T22:11:14.649Z,33.97
2022-12-18T22:13:44.915Z,30.52
2022-12-18T22:16:14.191Z,32.85
2022-12-18T22:18:43.024Z,29.92
2022-12-18T22:21:29.363Z,33.80
2022-12-18T22:24:01.501Z,27.23
2022-12-18T22:26:37.923Z,28.38
2022-12-18T22:29:26.659Z,31.35
2022-12-18T22:31:55.436Z,27.23
2022-12-18T22:34:23.962Z,30.25
2022-12-18T22:36:54.066Z,27.20
2022-12-18T22:39:25.618Z,30.30
2022-12-18T22:41:54.546Z,26.42
2022-12-18T22:44:23.377Z,44.05
2022-12-18T22:47:03.534Z,31.33
2022-12-18T22:49:35.927Z,28.33
2022-12-18T22:52:09.352Z,29.92
2022-12-18T22:54:38.852Z,27.30
2022-12-18T22:57:07.434Z,28.13
2022-12-18T22:59:35.942Z,25.95
2022-12-18T23:02:04.562Z,27.83
2022-12-18T23:04:36.573Z,23.60
2022-12-18T23:07:07.399Z,23.55
2022-12-18T23:09:36.276Z,23.13
